sensor_id;sensor_type;location;lat;lon;timestamp;P1;durP1;ratioP1;P2;durP2;ratioP2
73678;SDS011;61978;52.742;16.962;2022-08-18T00:00:10;17.92;;;15.60;;
73678;SDS011;61978;52.742;16.962;2022-08-18T00:02:40;24.98;;;16.27;;
73678;SDS011;61978;52.742;16.962;2022-08-18T00:05:08;19.85;;;15.10;;
73678;SDS011;61978;52.742;16.962;2022-08-18T00:07:38;22.07;;;15.68;;
73678;SDS011;61978;52.742;16.962;2022-08-18T00:10:05;20.62;;;15.83;;
73678;SDS011;61978;52.742;16.962;2022-08-18T00:12:37;24.00;;;16.23;;
73678;SDS011;61978;52.742;16.962;2022-08-18T00:15:07;22.37;;;16.93;;
73678;SDS011;61978;52.742;16.962;2022-08-18T00:17:37;20.50;;;16.62;;
73678;SDS011;61978;52.742;16.962;2022-08-18T00:20:06;20.27;;;16.32;;
73678;SDS011;61978;52.742;16.962;2022-08-18T00:22:35;24.60;;;18.25;;
73678;SDS011;61978;52.742;16.962;2022-08-18T00:25:04;23.92;;;18.82;;
73678;SDS011;61978;52.742;16.962;2022-08-18T00:27:35;22.40;;;17.77;;
73678;SDS011;61978;52.742;16.962;2022-08-18T00:30:04;22.87;;;17.52;;
73678;SDS011;61978;52.742;16.962;2022-08-18T00:32:35;24.75;;;17.95;;
73678;SDS011;61978;52.742;16.962;2022-08-18T00:35:05;23.02;;;17.15;;
73678;SDS011;61978;52.742;16.962;2022-08-18T00:37:41;20.80;;;17.30;;
73678;SDS011;61978;52.742;16.962;2022-08-18T00:40:13;24.52;;;16.67;;
73678;SDS011;61978;52.742;16.962;2022-08-18T00:45:11;18.77;;;16.70;;
73678;SDS011;61978;52.742;16.962;2022-08-18T00:47:41;21.60;;;18.52;;
73678;SDS011;61978;52.742;16.962;2022-08-18T00:53:02;25.35;;;18.17;;
73678;SDS011;61978;52.742;16.962;2022-08-18T00:55:28;28.32;;;18.27;;
73678;SDS011;61978;52.742;16.962;2022-08-18T00:58:09;26.62;;;18.42;;
73678;SDS011;61978;52.742;16.962;2022-08-18T01:00:32;23.02;;;18.12;;
73678;SDS011;61978;52.742;16.962;2022-08-18T01:03:00;27.85;;;19.15;;
73678;SDS011;61978;52.742;16.962;2022-08-18T01:05:34;26.17;;;18.30;;
73678;SDS011;61978;52.742;16.962;2022-08-18T01:08:05;22.05;;;18.25;;
73678;SDS011;61978;52.742;16.962;2022-08-18T01:10:36;28.05;;;19.77;;
73678;SDS011;61978;52.742;16.962;2022-08-18T01:13:06;23.98;;;19.92;;
73678;SDS011;61978;52.742;16.962;2022-08-18T01:15:35;26.42;;;19.62;;
73678;SDS011;61978;52.742;16.962;2022-08-18T01:18:04;24.20;;;20.05;;
73678;SDS011;61978;52.742;16.962;2022-08-18T01:24:01;31.27;;;20.90;;
73678;SDS011;61978;52.742;16.962;2022-08-18T01:26:31;25.75;;;20.52;;
73678;SDS011;61978;52.742;16.962;2022-08-18T01:29:03;25.02;;;22.10;;
73678;SDS011;61978;52.742;16.962;2022-08-18T01:31:35;29.15;;;21.12;;
73678;SDS011;61978;52.742;16.962;2022-08-18T01:34:04;30.50;;;22.07;;
73678;SDS011;61978;52.742;16.962;2022-08-18T01:36:33;30.00;;;22.62;;
73678;SDS011;61978;52.742;16.962;2022-08-18T01:39:03;29.82;;;22.65;;
73678;SDS011;61978;52.742;16.962;2022-08-18T01:41:36;26.07;;;21.93;;
73678;SDS011;61978;52.742;16.962;2022-08-18T01:44:03;26.52;;;21.73;;
73678;SDS011;61978;52.742;16.962;2022-08-18T01:46:33;31.07;;;23.07;;
73678;SDS011;61978;52.742;16.962;2022-08-18T01:49:01;27.05;;;22.52;;
73678;SDS011;61978;52.742;16.962;2022-08-18T01:51:29;26.52;;;21.93;;
73678;SDS011;61978;52.742;16.962;2022-08-18T01:53:58;33.50;;;22.17;;
73678;SDS011;61978;52.742;16.962;2022-08-18T01:56:27;24.45;;;20.52;;
73678;SDS011;61978;52.742;16.962;2022-08-18T01:58:55;27.45;;;21.17;;
73678;SDS011;61978;52.742;16.962;2022-08-18T02:01:23;26.87;;;21.40;;
73678;SDS011;61978;52.742;16.962;2022-08-18T02:03:54;28.10;;;21.52;;
73678;SDS011;61978;52.742;16.962;2022-08-18T02:06:25;32.55;;;21.40;;
73678;SDS011;61978;52.742;16.962;2022-08-18T02:08:52;28.17;;;21.82;;
73678;SDS011;61978;52.742;16.962;2022-08-18T02:11:21;28.07;;;22.50;;
73678;SDS011;61978;52.742;16.962;2022-08-18T02:13:48;26.10;;;22.60;;
73678;SDS011;61978;52.742;16.962;2022-08-18T02:16:15;26.70;;;21.42;;
73678;SDS011;61978;52.742;16.962;2022-08-18T02:18:42;24.70;;;22.07;;
73678;SDS011;61978;52.742;16.962;2022-08-18T02:21:11;31.93;;;23.38;;
73678;SDS011;61978;52.742;16.962;2022-08-18T02:23:40;32.28;;;22.87;;
73678;SDS011;61978;52.742;16.962;2022-08-18T02:26:10;28.60;;;22.30;;
73678;SDS011;61978;52.742;16.962;2022-08-18T02:28:39;29.32;;;22.48;;
73678;SDS011;61978;52.742;16.962;2022-08-18T02:31:08;30.23;;;22.82;;
73678;SDS011;61978;52.742;16.962;2022-08-18T02:33:37;31.50;;;23.57;;
73678;SDS011;61978;52.742;16.962;2022-08-18T02:36:06;28.45;;;21.97;;
73678;SDS011;61978;52.742;16.962;2022-08-18T02:38:34;26.42;;;23.10;;
73678;SDS011;61978;52.742;16.962;2022-08-18T02:41:07;31.07;;;22.32;;
73678;SDS011;61978;52.742;16.962;2022-08-18T02:43:41;30.68;;;23.75;;
73678;SDS011;61978;52.742;16.962;2022-08-18T02:46:12;29.82;;;24.63;;
73678;SDS011;61978;52.742;16.962;2022-08-18T02:48:43;28.47;;;24.50;;
73678;SDS011;61978;52.742;16.962;2022-08-18T02:51:16;39.48;;;24.60;;
73678;SDS011;61978;52.742;16.962;2022-08-18T02:53:45;35.48;;;23.83;;
73678;SDS011;61978;52.742;16.962;2022-08-18T02:56:18;28.40;;;23.50;;
73678;SDS011;61978;52.742;16.962;2022-08-18T02:58:51;28.32;;;24.27;;
73678;SDS011;61978;52.742;16.962;2022-08-18T03:01:26;28.57;;;24.15;;
73678;SDS011;61978;52.742;16.962;2022-08-18T03:03:56;28.83;;;24.00;;
73678;SDS011;61978;52.742;16.962;2022-08-18T03:06:24;33.63;;;25.80;;
73678;SDS011;61978;52.742;16.962;2022-08-18T03:08:54;33.65;;;25.30;;
73678;SDS011;61978;52.742;16.962;2022-08-18T03:11:26;28.67;;;25.35;;
73678;SDS011;61978;52.742;16.962;2022-08-18T03:13:55;30.80;;;25.72;;
73678;SDS011;61978;52.742;16.962;2022-08-18T03:16:22;33.35;;;25.77;;
73678;SDS011;61978;52.742;16.962;2022-08-18T03:18:50;33.85;;;26.60;;
73678;SDS011;61978;52.742;16.962;2022-08-18T03:21:19;31.65;;;26.48;;
73678;SDS011;61978;52.742;16.962;2022-08-18T03:23:49;30.20;;;25.97;;
73678;SDS011;61978;52.742;16.962;2022-08-18T03:26:18;33.60;;;24.90;;
73678;SDS011;61978;52.742;16.962;2022-08-18T03:28:51;33.05;;;23.80;;
73678;SDS011;61978;52.742;16.962;2022-08-18T03:31:19;25.10;;;22.40;;
73678;SDS011;61978;52.742;16.962;2022-08-18T03:33:49;36.13;;;25.48;;
73678;SDS011;61978;52.742;16.962;2022-08-18T03:36:22;31.45;;;25.88;;
73678;SDS011;61978;52.742;16.962;2022-08-18T03:38:49;34.18;;;26.57;;
73678;SDS011;61978;52.742;16.962;2022-08-18T03:41:23;36.33;;;27.80;;
73678;SDS011;61978;52.742;16.962;2022-08-18T03:43:51;32.28;;;27.75;;
73678;SDS011;61978;52.742;16.962;2022-08-18T03:46:19;33.18;;;28.38;;
73678;SDS011;61978;52.742;16.962;2022-08-18T03:48:47;40.55;;;29.05;;
73678;SDS011;61978;52.742;16.962;2022-08-18T03:51:19;37.05;;;28.30;;
73678;SDS011;61978;52.742;16.962;2022-08-18T03:53:52;37.03;;;29.25;;
73678;SDS011;61978;52.742;16.962;2022-08-18T03:56:21;35.20;;;27.87;;
73678;SDS011;61978;52.742;16.962;2022-08-18T03:58:51;34.98;;;28.90;;
73678;SDS011;61978;52.742;16.962;2022-08-18T04:01:23;39.80;;;28.83;;
73678;SDS011;61978;52.742;16.962;2022-08-18T04:03:57;34.38;;;28.57;;
73678;SDS011;61978;52.742;16.962;2022-08-18T04:06:23;39.85;;;29.92;;
73678;SDS011;61978;52.742;16.962;2022-08-18T04:08:58;34.45;;;28.55;;
73678;SDS011;61978;52.742;16.962;2022-08-18T04:11:27;41.35;;;30.48;;
73678;SDS011;61978;52.742;16.962;2022-08-18T04:13:56;37.17;;;30.37;;
73678;SDS011;61978;52.742;16.962;2022-08-18T04:16:27;35.88;;;29.55;;
73678;SDS011;61978;52.742;16.962;2022-08-18T04:18:57;40.15;;;31.57;;
73678;SDS011;61978;52.742;16.962;2022-08-18T04:21:29;41.75;;;30.72;;
73678;SDS011;61978;52.742;16.962;2022-08-18T04:23:58;40.23;;;29.87;;
73678;SDS011;61978;52.742;16.962;2022-08-18T04:26:34;44.65;;;30.90;;
73678;SDS011;61978;52.742;16.962;2022-08-18T04:29:04;48.17;;;31.62;;
73678;SDS011;61978;52.742;16.962;2022-08-18T04:31:35;47.88;;;31.10;;
73678;SDS011;61978;52.742;16.962;2022-08-18T04:34:02;57.95;;;29.37;;
73678;SDS011;61978;52.742;16.962;2022-08-18T04:36:32;39.53;;;28.87;;
73678;SDS011;61978;52.742;16.962;2022-08-18T04:39:03;34.35;;;28.80;;
73678;SDS011;61978;52.742;16.962;2022-08-18T04:41:35;34.43;;;27.67;;
73678;SDS011;61978;52.742;16.962;2022-08-18T04:44:05;42.62;;;29.15;;
73678;SDS011;61978;52.742;16.962;2022-08-18T04:46:35;41.10;;;27.35;;
73678;SDS011;61978;52.742;16.962;2022-08-18T04:49:05;41.18;;;27.67;;
73678;SDS011;61978;52.742;16.962;2022-08-18T04:51:38;34.45;;;29.85;;
73678;SDS011;61978;52.742;16.962;2022-08-18T04:54:09;33.88;;;27.67;;
73678;SDS011;61978;52.742;16.962;2022-08-18T04:56:37;33.70;;;28.77;;
73678;SDS011;61978;52.742;16.962;2022-08-18T04:59:10;35.90;;;27.15;;
73678;SDS011;61978;52.742;16.962;2022-08-18T05:01:42;32.95;;;28.55;;
73678;SDS011;61978;52.742;16.962;2022-08-18T05:04:11;33.05;;;28.32;;
73678;SDS011;61978;52.742;16.962;2022-08-18T05:06:41;32.55;;;28.52;;
73678;SDS011;61978;52.742;16.962;2022-08-18T05:09:10;29.15;;;26.02;;
73678;SDS011;61978;52.742;16.962;2022-08-18T05:11:41;37.10;;;27.07;;
73678;SDS011;61978;52.742;16.962;2022-08-18T05:14:09;34.60;;;26.60;;
73678;SDS011;61978;52.742;16.962;2022-08-18T05:16:36;33.38;;;27.07;;
73678;SDS011;61978;52.742;16.962;2022-08-18T05:19:06;36.88;;;28.00;;
73678;SDS011;61978;52.742;16.962;2022-08-18T05:21:34;40.80;;;25.80;;
73678;SDS011;61978;52.742;16.962;2022-08-18T05:24:08;38.45;;;26.50;;
73678;SDS011;61978;52.742;16.962;2022-08-18T05:26:35;36.80;;;25.62;;
73678;SDS011;61978;52.742;16.962;2022-08-18T05:29:02;34.18;;;26.52;;
73678;SDS011;61978;52.742;16.962;2022-08-18T05:31:30;34.13;;;26.65;;
73678;SDS011;61978;52.742;16.962;2022-08-18T05:33:58;31.02;;;24.72;;
73678;SDS011;61978;52.742;16.962;2022-08-18T05:44:32;29.02;;;21.65;;
73678;SDS011;61978;52.742;16.962;2022-08-18T05:47:28;34.48;;;23.80;;
73678;SDS011;61978;52.742;16.962;2022-08-18T05:49:57;31.07;;;22.67;;
73678;SDS011;61978;52.742;16.962;2022-08-18T05:52:35;29.32;;;22.13;;
73678;SDS011;61978;52.742;16.962;2022-08-18T05:55:09;29.80;;;23.55;;
73678;SDS011;61978;52.742;16.962;2022-08-18T05:57:54;31.02;;;23.42;;
73678;SDS011;61978;52.742;16.962;2022-08-18T06:00:24;26.12;;;20.92;;
73678;SDS011;61978;52.742;16.962;2022-08-18T06:02:59;30.27;;;21.40;;
73678;SDS011;61978;52.742;16.962;2022-08-18T06:05:34;33.20;;;21.07;;
73678;SDS011;61978;52.742;16.962;2022-08-18T06:08:03;25.37;;;20.88;;
73678;SDS011;61978;52.742;16.962;2022-08-18T06:10:33;27.32;;;18.87;;
73678;SDS011;61978;52.742;16.962;2022-08-18T06:13:02;27.05;;;19.05;;
73678;SDS011;61978;52.742;16.962;2022-08-18T06:21:03;33.13;;;19.55;;
73678;SDS011;61978;52.742;16.962;2022-08-18T06:26:19;25.72;;;19.35;;
73678;SDS011;61978;52.742;16.962;2022-08-18T06:31:41;29.80;;;19.75;;
73678;SDS011;61978;52.742;16.962;2022-08-18T06:37:15;27.35;;;18.07;;
73678;SDS011;61978;52.742;16.962;2022-08-18T06:39:51;31.62;;;18.42;;
73678;SDS011;61978;52.742;16.962;2022-08-18T06:42:22;32.13;;;18.27;;
73678;SDS011;61978;52.742;16.962;2022-08-18T06:44:54;19.92;;;16.20;;
73678;SDS011;61978;52.742;16.962;2022-08-18T06:50:16;23.18;;;15.70;;
73678;SDS011;61978;52.742;16.962;2022-08-18T06:52:55;19.62;;;16.30;;
73678;SDS011;61978;52.742;16.962;2022-08-18T06:55:35;20.88;;;15.65;;
73678;SDS011;61978;52.742;16.962;2022-08-18T06:58:04;21.33;;;16.37;;
73678;SDS011;61978;52.742;16.962;2022-08-18T07:00:33;20.68;;;16.25;;
73678;SDS011;61978;52.742;16.962;2022-08-18T07:03:11;22.58;;;16.17;;
73678;SDS011;61978;52.742;16.962;2022-08-18T07:08:32;18.17;;;14.78;;
73678;SDS011;61978;52.742;16.962;2022-08-18T07:11:10;21.30;;;14.60;;
73678;SDS011;61978;52.742;16.962;2022-08-18T07:16:29;18.65;;;14.80;;
73678;SDS011;61978;52.742;16.962;2022-08-18T07:18:54;16.20;;;12.60;;
73678;SDS011;61978;52.742;16.962;2022-08-18T07:21:42;30.88;;;16.85;;
73678;SDS011;61978;52.742;16.962;2022-08-18T07:24:11;25.32;;;14.87;;
73678;SDS011;61978;52.742;16.962;2022-08-18T07:29:28;20.82;;;13.40;;
73678;SDS011;61978;52.742;16.962;2022-08-18T07:31:58;21.77;;;13.53;;
73678;SDS011;61978;52.742;16.962;2022-08-18T07:34:36;18.65;;;13.75;;
73678;SDS011;61978;52.742;16.962;2022-08-18T07:37:13;15.78;;;13.10;;
73678;SDS011;61978;52.742;16.962;2022-08-18T07:39:39;17.87;;;12.73;;
73678;SDS011;61978;52.742;16.962;2022-08-18T07:42:15;18.60;;;13.75;;
73678;SDS011;61978;52.742;16.962;2022-08-18T07:44:53;13.95;;;11.73;;
73678;SDS011;61978;52.742;16.962;2022-08-18T07:47:37;16.15;;;13.68;;
73678;SDS011;61978;52.742;16.962;2022-08-18T07:50:05;14.98;;;13.45;;
73678;SDS011;61978;52.742;16.962;2022-08-18T07:52:47;15.23;;;12.37;;
73678;SDS011;61978;52.742;16.962;2022-08-18T07:55:26;19.23;;;13.13;;
73678;SDS011;61978;52.742;16.962;2022-08-18T08:00:54;19.42;;;12.78;;
73678;SDS011;61978;52.742;16.962;2022-08-18T08:03:43;14.55;;;11.43;;
73678;SDS011;61978;52.742;16.962;2022-08-18T08:06:15;18.35;;;12.30;;
73678;SDS011;61978;52.742;16.962;2022-08-18T08:08:49;17.70;;;12.30;;
73678;SDS011;61978;52.742;16.962;2022-08-18T08:11:21;22.00;;;11.37;;
73678;SDS011;61978;52.742;16.962;2022-08-18T08:16:36;15.13;;;12.07;;
73678;SDS011;61978;52.742;16.962;2022-08-18T08:19:09;13.70;;;10.08;;
73678;SDS011;61978;52.742;16.962;2022-08-18T08:21:39;17.73;;;10.90;;
73678;SDS011;61978;52.742;16.962;2022-08-18T08:26:52;17.12;;;11.15;;
73678;SDS011;61978;52.742;16.962;2022-08-18T08:29:43;15.60;;;11.15;;
73678;SDS011;61978;52.742;16.962;2022-08-18T08:32:19;26.33;;;10.85;;
73678;SDS011;61978;52.742;16.962;2022-08-18T08:34:56;11.25;;;9.45;;
73678;SDS011;61978;52.742;16.962;2022-08-18T08:40:26;13.68;;;9.68;;
73678;SDS011;61978;52.742;16.962;2022-08-18T08:43:05;12.35;;;9.20;;
73678;SDS011;61978;52.742;16.962;2022-08-18T08:45:50;17.23;;;9.05;;
73678;SDS011;61978;52.742;16.962;2022-08-18T08:48:25;14.00;;;8.68;;
73678;SDS011;61978;52.742;16.962;2022-08-18T08:53:28;13.48;;;8.85;;
73678;SDS011;61978;52.742;16.962;2022-08-18T08:56:02;11.45;;;8.55;;
73678;SDS011;61978;52.742;16.962;2022-08-18T08:58:33;12.65;;;8.93;;
73678;SDS011;61978;52.742;16.962;2022-08-18T09:01:19;12.45;;;7.53;;
73678;SDS011;61978;52.742;16.962;2022-08-18T09:03:46;9.90;;;7.35;;
73678;SDS011;61978;52.742;16.962;2022-08-18T09:09:40;10.23;;;7.78;;
73678;SDS011;61978;52.742;16.962;2022-08-18T09:14:15;12.75;;;9.50;;
73678;SDS011;61978;52.742;16.962;2022-08-18T09:19:32;14.55;;;9.78;;
73678;SDS011;61978;52.742;16.962;2022-08-18T09:22:50;12.85;;;7.97;;
73678;SDS011;61978;52.742;16.962;2022-08-18T09:24:51;12.13;;;9.75;;
73678;SDS011;61978;52.742;16.962;2022-08-18T09:30:04;11.88;;;8.90;;
73678;SDS011;61978;52.742;16.962;2022-08-18T09:32:43;13.03;;;8.80;;
73678;SDS011;61978;52.742;16.962;2022-08-18T09:35:33;12.20;;;8.30;;
73678;SDS011;61978;52.742;16.962;2022-08-18T09:41:10;12.68;;;7.72;;
73678;SDS011;61978;52.742;16.962;2022-08-18T09:44:03;9.08;;;8.15;;
73678;SDS011;61978;52.742;16.962;2022-08-18T09:51:52;11.25;;;9.10;;
73678;SDS011;61978;52.742;16.962;2022-08-18T09:54:21;9.93;;;8.30;;
73678;SDS011;61978;52.742;16.962;2022-08-18T09:56:59;10.03;;;7.50;;
73678;SDS011;61978;52.742;16.962;2022-08-18T10:02:06;11.15;;;6.42;;
73678;SDS011;61978;52.742;16.962;2022-08-18T10:07:44;13.20;;;7.67;;
73678;SDS011;61978;52.742;16.962;2022-08-18T10:10:48;9.20;;;7.22;;
73678;SDS011;61978;52.742;16.962;2022-08-18T10:13:20;14.63;;;7.72;;
73678;SDS011;61978;52.742;16.962;2022-08-18T10:18:39;7.47;;;6.00;;
73678;SDS011;61978;52.742;16.962;2022-08-18T10:21:11;10.50;;;6.95;;
73678;SDS011;61978;52.742;16.962;2022-08-18T10:23:48;8.43;;;6.17;;
73678;SDS011;61978;52.742;16.962;2022-08-18T10:31:29;11.28;;;7.67;;
73678;SDS011;61978;52.742;16.962;2022-08-18T10:39:20;13.32;;;6.90;;
73678;SDS011;61978;52.742;16.962;2022-08-18T10:41:55;11.68;;;6.55;;
73678;SDS011;61978;52.742;16.962;2022-08-18T10:44:33;6.87;;;6.15;;
73678;SDS011;61978;52.742;16.962;2022-08-18T10:47:02;7.58;;;6.05;;
73678;SDS011;61978;52.742;16.962;2022-08-18T10:49:29;8.00;;;6.10;;
73678;SDS011;61978;52.742;16.962;2022-08-18T10:52:10;10.82;;;6.30;;
73678;SDS011;61978;52.742;16.962;2022-08-18T11:00:47;6.85;;;6.17;;
73678;SDS011;61978;52.742;16.962;2022-08-18T11:06:06;9.10;;;6.37;;
73678;SDS011;61978;52.742;16.962;2022-08-18T11:08:41;8.13;;;5.90;;
73678;SDS011;61978;52.742;16.962;2022-08-18T11:11:10;9.95;;;6.00;;
73678;SDS011;61978;52.742;16.962;2022-08-18T11:13:45;11.63;;;6.20;;
73678;SDS011;61978;52.742;16.962;2022-08-18T11:19:08;16.10;;;6.22;;
73678;SDS011;61978;52.742;16.962;2022-08-18T11:24:16;11.35;;;6.60;;
73678;SDS011;61978;52.742;16.962;2022-08-18T11:26:50;11.18;;;6.92;;
73678;SDS011;61978;52.742;16.962;2022-08-18T11:32:07;10.03;;;6.20;;
73678;SDS011;61978;52.742;16.962;2022-08-18T11:43:01;8.05;;;6.60;;
73678;SDS011;61978;52.742;16.962;2022-08-18T11:48:31;12.37;;;6.40;;
73678;SDS011;61978;52.742;16.962;2022-08-18T11:58:48;10.72;;;6.50;;
73678;SDS011;61978;52.742;16.962;2022-08-18T12:01:38;9.53;;;6.70;;
73678;SDS011;61978;52.742;16.962;2022-08-18T12:09:34;10.28;;;6.72;;
73678;SDS011;61978;52.742;16.962;2022-08-18T12:17:24;12.80;;;6.53;;
73678;SDS011;61978;52.742;16.962;2022-08-18T12:19:52;12.53;;;6.47;;
73678;SDS011;61978;52.742;16.962;2022-08-18T12:22:20;10.00;;;5.75;;
73678;SDS011;61978;52.742;16.962;2022-08-18T12:24:48;13.48;;;6.58;;
73678;SDS011;61978;52.742;16.962;2022-08-18T12:27:17;11.00;;;6.47;;
73678;SDS011;61978;52.742;16.962;2022-08-18T12:29:46;10.48;;;5.92;;
73678;SDS011;61978;52.742;16.962;2022-08-18T12:32:13;8.60;;;6.85;;
73678;SDS011;61978;52.742;16.962;2022-08-18T12:34:40;14.87;;;7.30;;
73678;SDS011;61978;52.742;16.962;2022-08-18T12:37:07;7.97;;;7.08;;
73678;SDS011;61978;52.742;16.962;2022-08-18T12:39:39;10.10;;;6.72;;
73678;SDS011;61978;52.742;16.962;2022-08-18T12:42:07;14.65;;;7.87;;
73678;SDS011;61978;52.742;16.962;2022-08-18T12:44:37;12.03;;;6.72;;
73678;SDS011;61978;52.742;16.962;2022-08-18T12:47:12;10.63;;;6.45;;
73678;SDS011;61978;52.742;16.962;2022-08-18T12:49:34;9.63;;;6.65;;
73678;SDS011;61978;52.742;16.962;2022-08-18T12:52:02;12.88;;;7.30;;
73678;SDS011;61978;52.742;16.962;2022-08-18T12:54:29;10.18;;;6.95;;
73678;SDS011;61978;52.742;16.962;2022-08-18T12:56:58;13.65;;;6.12;;
73678;SDS011;61978;52.742;16.962;2022-08-18T12:59:25;10.55;;;5.65;;
73678;SDS011;61978;52.742;16.962;2022-08-18T13:01:52;8.58;;;6.20;;
73678;SDS011;61978;52.742;16.962;2022-08-18T13:04:19;8.73;;;6.55;;
73678;SDS011;61978;52.742;16.962;2022-08-18T13:06:47;9.78;;;6.55;;
73678;SDS011;61978;52.742;16.962;2022-08-18T13:09:16;7.25;;;5.92;;
73678;SDS011;61978;52.742;16.962;2022-08-18T13:11:44;12.28;;;5.67;;
73678;SDS011;61978;52.742;16.962;2022-08-18T13:14:12;6.85;;;6.00;;
73678;SDS011;61978;52.742;16.962;2022-08-18T13:16:42;8.78;;;6.40;;
73678;SDS011;61978;52.742;16.962;2022-08-18T13:19:11;9.55;;;5.75;;
73678;SDS011;61978;52.742;16.962;2022-08-18T13:21:39;8.43;;;6.12;;
73678;SDS011;61978;52.742;16.962;2022-08-18T13:24:07;8.98;;;6.05;;
73678;SDS011;61978;52.742;16.962;2022-08-18T13:26:36;7.87;;;5.97;;
73678;SDS011;61978;52.742;16.962;2022-08-18T13:29:06;13.22;;;6.25;;
73678;SDS011;61978;52.742;16.962;2022-08-18T13:31:32;9.48;;;6.28;;
73678;SDS011;61978;52.742;16.962;2022-08-18T13:33:59;15.15;;;7.00;;
73678;SDS011;61978;52.742;16.962;2022-08-18T13:36:27;7.78;;;5.95;;
73678;SDS011;61978;52.742;16.962;2022-08-18T13:39:00;15.35;;;6.58;;
73678;SDS011;61978;52.742;16.962;2022-08-18T13:41:27;8.48;;;6.30;;
73678;SDS011;61978;52.742;16.962;2022-08-18T13:43:56;10.98;;;6.20;;
73678;SDS011;61978;52.742;16.962;2022-08-18T13:46:24;8.85;;;6.62;;
73678;SDS011;61978;52.742;16.962;2022-08-18T13:48:52;10.28;;;6.08;;
73678;SDS011;61978;52.742;16.962;2022-08-18T13:51:21;10.15;;;6.25;;
73678;SDS011;61978;52.742;16.962;2022-08-18T13:53:49;19.25;;;6.80;;
73678;SDS011;61978;52.742;16.962;2022-08-18T13:56:16;9.60;;;6.20;;
73678;SDS011;61978;52.742;16.962;2022-08-18T13:58:44;12.45;;;6.15;;
73678;SDS011;61978;52.742;16.962;2022-08-18T14:01:11;10.82;;;6.00;;
73678;SDS011;61978;52.742;16.962;2022-08-18T14:03:38;10.88;;;6.33;;
73678;SDS011;61978;52.742;16.962;2022-08-18T14:06:06;6.20;;;5.35;;
73678;SDS011;61978;52.742;16.962;2022-08-18T14:08:33;8.73;;;5.85;;
73678;SDS011;61978;52.742;16.962;2022-08-18T14:11:01;8.50;;;6.20;;
73678;SDS011;61978;52.742;16.962;2022-08-18T14:13:28;6.10;;;5.22;;
73678;SDS011;61978;52.742;16.962;2022-08-18T14:15:56;8.25;;;5.70;;
73678;SDS011;61978;52.742;16.962;2022-08-18T14:18:26;15.00;;;5.90;;
73678;SDS011;61978;52.742;16.962;2022-08-18T14:20:54;9.30;;;5.58;;
73678;SDS011;61978;52.742;16.962;2022-08-18T14:23:40;10.18;;;5.53;;
73678;SDS011;61978;52.742;16.962;2022-08-18T14:26:25;10.70;;;5.95;;
73678;SDS011;61978;52.742;16.962;2022-08-18T14:29:11;8.68;;;5.58;;
73678;SDS011;61978;52.742;16.962;2022-08-18T14:31:39;11.95;;;5.33;;
73678;SDS011;61978;52.742;16.962;2022-08-18T14:34:06;6.28;;;5.72;;
73678;SDS011;61978;52.742;16.962;2022-08-18T14:36:34;8.18;;;5.92;;
73678;SDS011;61978;52.742;16.962;2022-08-18T14:39:02;9.78;;;5.67;;
73678;SDS011;61978;52.742;16.962;2022-08-18T14:41:29;11.22;;;5.90;;
73678;SDS011;61978;52.742;16.962;2022-08-18T14:43:57;7.70;;;5.62;;
73678;SDS011;61978;52.742;16.962;2022-08-18T14:46:26;7.17;;;4.90;;
73678;SDS011;61978;52.742;16.962;2022-08-18T14:48:54;8.95;;;5.90;;
73678;SDS011;61978;52.742;16.962;2022-08-18T14:51:21;8.48;;;5.70;;
73678;SDS011;61978;52.742;16.962;2022-08-18T14:53:49;11.57;;;5.58;;
73678;SDS011;61978;52.742;16.962;2022-08-18T14:56:17;11.03;;;5.42;;
73678;SDS011;61978;52.742;16.962;2022-08-18T14:58:45;7.72;;;4.75;;
73678;SDS011;61978;52.742;16.962;2022-08-18T15:01:12;8.05;;;5.28;;
73678;SDS011;61978;52.742;16.962;2022-08-18T15:03:41;8.83;;;4.95;;
73678;SDS011;61978;52.742;16.962;2022-08-18T15:06:08;8.35;;;5.40;;
73678;SDS011;61978;52.742;16.962;2022-08-18T15:08:36;14.58;;;7.97;;
73678;SDS011;61978;52.742;16.962;2022-08-18T15:11:04;6.22;;;4.67;;
73678;SDS011;61978;52.742;16.962;2022-08-18T15:13:34;7.00;;;5.17;;
73678;SDS011;61978;52.742;16.962;2022-08-18T15:16:09;9.25;;;4.87;;
73678;SDS011;61978;52.742;16.962;2022-08-18T15:18:36;7.60;;;5.30;;
73678;SDS011;61978;52.742;16.962;2022-08-18T15:21:07;5.67;;;5.10;;
73678;SDS011;61978;52.742;16.962;2022-08-18T15:23:52;7.53;;;4.85;;
73678;SDS011;61978;52.742;16.962;2022-08-18T15:26:37;5.78;;;5.17;;
73678;SDS011;61978;52.742;16.962;2022-08-18T15:29:04;5.62;;;5.15;;
73678;SDS011;61978;52.742;16.962;2022-08-18T15:31:35;11.18;;;4.95;;
73678;SDS011;61978;52.742;16.962;2022-08-18T15:34:03;8.00;;;5.00;;
73678;SDS011;61978;52.742;16.962;2022-08-18T15:36:32;11.18;;;5.25;;
73678;SDS011;61978;52.742;16.962;2022-08-18T15:39:00;12.18;;;5.15;;
73678;SDS011;61978;52.742;16.962;2022-08-18T15:41:32;9.65;;;5.42;;
73678;SDS011;61978;52.742;16.962;2022-08-18T15:44:01;11.85;;;5.83;;
73678;SDS011;61978;52.742;16.962;2022-08-18T15:46:32;14.13;;;5.62;;
73678;SDS011;61978;52.742;16.962;2022-08-18T15:49:01;7.85;;;5.78;;
73678;SDS011;61978;52.742;16.962;2022-08-18T15:51:30;7.20;;;5.28;;
73678;SDS011;61978;52.742;16.962;2022-08-18T15:53:57;13.50;;;5.47;;
73678;SDS011;61978;52.742;16.962;2022-08-18T15:56:24;9.73;;;6.67;;
73678;SDS011;61978;52.742;16.962;2022-08-18T15:58:52;10.78;;;5.60;;
73678;SDS011;61978;52.742;16.962;2022-08-18T16:01:21;11.60;;;5.28;;
73678;SDS011;61978;52.742;16.962;2022-08-18T16:03:50;9.73;;;5.25;;
73678;SDS011;61978;52.742;16.962;2022-08-18T16:06:20;9.03;;;5.10;;
73678;SDS011;61978;52.742;16.962;2022-08-18T16:08:50;6.97;;;5.72;;
73678;SDS011;61978;52.742;16.962;2022-08-18T16:11:18;13.20;;;5.83;;
73678;SDS011;61978;52.742;16.962;2022-08-18T16:13:48;8.00;;;5.25;;
73678;SDS011;61978;52.742;16.962;2022-08-18T16:16:20;9.43;;;5.97;;
73678;SDS011;61978;52.742;16.962;2022-08-18T16:18:48;11.60;;;5.62;;
73678;SDS011;61978;52.742;16.962;2022-08-18T16:21:19;8.15;;;6.05;;
73678;SDS011;61978;52.742;16.962;2022-08-18T16:23:48;13.08;;;5.87;;
73678;SDS011;61978;52.742;16.962;2022-08-18T16:26:19;17.02;;;6.12;;
73678;SDS011;61978;52.742;16.962;2022-08-18T16:28:49;8.48;;;5.87;;
73678;SDS011;61978;52.742;16.962;2022-08-18T16:31:20;13.40;;;5.70;;
73678;SDS011;61978;52.742;16.962;2022-08-18T16:33:53;14.30;;;6.08;;
73678;SDS011;61978;52.742;16.962;2022-08-18T16:36:22;8.83;;;5.70;;
73678;SDS011;61978;52.742;16.962;2022-08-18T16:38:52;10.88;;;6.17;;
73678;SDS011;61978;52.742;16.962;2022-08-18T16:41:20;8.45;;;5.75;;
73678;SDS011;61978;52.742;16.962;2022-08-18T16:43:47;7.15;;;5.67;;
73678;SDS011;61978;52.742;16.962;2022-08-18T16:46:16;13.93;;;5.37;;
73678;SDS011;61978;52.742;16.962;2022-08-18T16:48:46;13.03;;;6.42;;
73678;SDS011;61978;52.742;16.962;2022-08-18T16:51:17;11.88;;;5.60;;
73678;SDS011;61978;52.742;16.962;2022-08-18T16:53:46;9.38;;;5.70;;
73678;SDS011;61978;52.742;16.962;2022-08-18T16:56:17;7.28;;;5.70;;
73678;SDS011;61978;52.742;16.962;2022-08-18T16:58:46;11.40;;;6.42;;
73678;SDS011;61978;52.742;16.962;2022-08-18T17:01:32;11.85;;;5.65;;